sensor_id;sensor_type;location;lat;lon;timestamp;temperature;humidity
48206;DHT22;33995;48.202;16.260;2023-02-22T00:01:42;11.00;99.90
48206;DHT22;33995;48.202;16.260;2023-02-22T00:04:36;11.10;99.90
48206;DHT22;33995;48.202;16.260;2023-02-22T00:07:05;11.20;99.90
48206;DHT22;33995;48.202;16.260;2023-02-22T00:09:32;11.20;99.90
48206;DHT22;33995;48.202;16.260;2023-02-22T00:12:00;11.20;99.90
48206;DHT22;33995;48.202;16.260;2023-02-22T00:14:29;11.30;99.90
48206;DHT22;33995;48.202;16.260;2023-02-22T00:16:56;11.30;99.90
48206;DHT22;33995;48.202;16.260;2023-02-22T00:19:25;11.20;99.90
48206;DHT22;33995;48.202;16.260;2023-02-22T00:21:53;11.20;99.90
48206;DHT22;33995;48.202;16.260;2023-02-22T00:24:20;11.20;99.90
48206;DHT22;33995;48.202;16.260;2023-02-22T00:26:54;11.20;99.90
48206;DHT22;33995;48.202;16.260;2023-02-22T00:29:23;11.20;99.90
48206;DHT22;33995;48.202;16.260;2023-02-22T00:31:50;11.20;99.90
48206;DHT22;33995;48.202;16.260;2023-02-22T00:34:18;11.20;99.90
48206;DHT22;33995;48.202;16.260;2023-02-22T00:36:48;11.20;99.90
48206;DHT22;33995;48.202;16.260;2023-02-22T00:39:15;11.10;99.90
48206;DHT22;33995;48.202;16.260;2023-02-22T00:41:42;11.10;99.90
48206;DHT22;33995;48.202;16.260;2023-02-22T00:44:11;11.10;99.90
48206;DHT22;33995;48.202;16.260;2023-02-22T00:46:40;11.20;99.90
48206;DHT22;33995;48.202;16.260;2023-02-22T00:49:07;11.30;99.90
48206;DHT22;33995;48.202;16.260;2023-02-22T00:51:36;11.30;99.90
48206;DHT22;33995;48.202;16.260;2023-02-22T00:54:03;11.30;99.90
48206;DHT22;33995;48.202;16.260;2023-02-22T00:56:32;11.30;99.90
48206;DHT22;33995;48.202;16.260;2023-02-22T00:59:00;11.30;99.90
48206;DHT22;33995;48.202;16.260;2023-02-22T01:01:28;11.30;99.90
48206;DHT22;33995;48.202;16.260;2023-02-22T01:03:55;11.30;99.90
48206;DHT22;33995;48.202;16.260;2023-02-22T01:06:22;11.30;99.90
48206;DHT22;33995;48.202;16.260;2023-02-22T01:08:50;11.30;99.90
48206;DHT22;33995;48.202;16.260;2023-02-22T01:11:17;11.30;99.90
48206;DHT22;33995;48.202;16.260;2023-02-22T01:13:44;11.30;99.90
48206;DHT22;33995;48.202;16.260;2023-02-22T01:16:12;11.30;99.90
48206;DHT22;33995;48.202;16.260;2023-02-22T01:18:40;11.30;99.90
48206;DHT22;33995;48.202;16.260;2023-02-22T01:21:09;11.30;99.90
48206;DHT22;33995;48.202;16.260;2023-02-22T01:27:49;11.30;99.90
48206;DHT22;33995;48.202;16.260;2023-02-22T01:30:23;11.20;99.90
48206;DHT22;33995;48.202;16.260;2023-02-22T01:32:52;11.20;99.90
48206;DHT22;33995;48.202;16.260;2023-02-22T01:35:23;11.30;99.90
48206;DHT22;33995;48.202;16.260;2023-02-22T01:37:50;11.20;99.90
48206;DHT22;33995;48.202;16.260;2023-02-22T01:40:38;11.20;99.90
48206;DHT22;33995;48.202;16.260;2023-02-22T01:45:54;11.30;99.90
48206;DHT22;33995;48.202;16.260;2023-02-22T01:51:16;11.30;99.90
48206;DHT22;33995;48.202;16.260;2023-02-22T01:53:52;11.40;99.90
48206;DHT22;33995;48.202;16.260;2023-02-22T01:56:23;11.40;99.90
48206;DHT22;33995;48.202;16.260;2023-02-22T01:59:00;11.30;99.90
48206;DHT22;33995;48.202;16.260;2023-02-22T02:01:28;11.40;99.90
48206;DHT22;33995;48.202;16.260;2023-02-22T02:04:00;11.40;99.90
48206;DHT22;33995;48.202;16.260;2023-02-22T02:06:32;11.40;99.90
48206;DHT22;33995;48.202;16.260;2023-02-22T02:09:13;11.40;99.90
48206;DHT22;33995;48.202;16.260;2023-02-22T02:11:44;11.40;99.90
48206;DHT22;33995;48.202;16.260;2023-02-22T02:14:12;11.40;99.90
48206;DHT22;33995;48.202;16.260;2023-02-22T02:16:43;11.40;99.90
48206;DHT22;33995;48.202;16.260;2023-02-22T02:30:42;11.30;99.90
48206;DHT22;33995;48.202;16.260;2023-02-22T02:41:32;11.20;99.90
48206;DHT22;33995;48.202;16.260;2023-02-22T02:44:25;11.20;99.90
48206;DHT22;33995;48.202;16.260;2023-02-22T02:47:05;11.10;99.90
48206;DHT22;33995;48.202;16.260;2023-02-22T02:50:00;11.10;99.90
48206;DHT22;33995;48.202;16.260;2023-02-22T02:52:32;11.10;99.90
48206;DHT22;33995;48.202;16.260;2023-02-22T02:55:03;11.10;99.90
48206;DHT22;33995;48.202;16.260;2023-02-22T02:57:31;11.20;99.90
48206;DHT22;33995;48.202;16.260;2023-02-22T02:59:58;11.20;99.90
48206;DHT22;33995;48.202;16.260;2023-02-22T03:11:06;11.10;99.90
48206;DHT22;33995;48.202;16.260;2023-02-22T03:13:55;11.10;99.90
48206;DHT22;33995;48.202;16.260;2023-02-22T03:19:33;11.10;99.90
48206;DHT22;33995;48.202;16.260;2023-02-22T03:22:17;11.00;99.90
48206;DHT22;33995;48.202;16.260;2023-02-22T03:25:12;11.00;99.90
48206;DHT22;33995;48.202;16.260;2023-02-22T03:27:49;11.00;99.90
48206;DHT22;33995;48.202;16.260;2023-02-22T03:30:26;11.00;99.90
48206;DHT22;33995;48.202;16.260;2023-02-22T03:33:03;11.00;99.90
48206;DHT22;33995;48.202;16.260;2023-02-22T03:35:43;11.00;99.90
48206;DHT22;33995;48.202;16.260;2023-02-22T03:38:16;11.00;99.90
48206;DHT22;33995;48.202;16.260;2023-02-22T03:40:49;11.00;99.90
48206;DHT22;33995;48.202;16.260;2023-02-22T03:43:59;10.90;99.90
48206;DHT22;33995;48.202;16.260;2023-02-22T03:46:29;10.90;99.90
48206;DHT22;33995;48.202;16.260;2023-02-22T03:51:36;10.80;99.90
48206;DHT22;33995;48.202;16.260;2023-02-22T03:54:03;10.80;99.90
48206;DHT22;33995;48.202;16.260;2023-02-22T03:56:48;10.80;99.90
48206;DHT22;33995;48.202;16.260;2023-02-22T03:59:21;10.80;99.90
48206;DHT22;33995;48.202;16.260;2023-02-22T04:01:54;10.80;99.90
48206;DHT22;33995;48.202;16.260;2023-02-22T04:04:23;10.80;99.90
48206;DHT22;33995;48.202;16.260;2023-02-22T04:06:51;10.80;99.90
48206;DHT22;33995;48.202;16.260;2023-02-22T04:09:19;10.80;99.90
48206;DHT22;33995;48.202;16.260;2023-02-22T04:11:47;10.90;99.90
48206;DHT22;33995;48.202;16.260;2023-02-22T04:14:15;10.90;99.90
48206;DHT22;33995;48.202;16.260;2023-02-22T04:16:42;10.90;99.90
48206;DHT22;33995;48.202;16.260;2023-02-22T04:19:09;10.80;99.90
48206;DHT22;33995;48.202;16.260;2023-02-22T04:21:37;10.80;99.90
48206;DHT22;33995;48.202;16.260;2023-02-22T04:24:08;10.80;99.90
48206;DHT22;33995;48.202;16.260;2023-02-22T04:26:36;10.80;99.90
48206;DHT22;33995;48.202;16.260;2023-02-22T04:29:05;10.70;99.90
48206;DHT22;33995;48.202;16.260;2023-02-22T04:31:36;10.80;99.90
48206;DHT22;33995;48.202;16.260;2023-02-22T04:34:05;10.70;99.90
48206;DHT22;33995;48.202;16.260;2023-02-22T04:36:36;10.70;99.90
48206;DHT22;33995;48.202;16.260;2023-02-22T04:39:04;10.70;99.90
48206;DHT22;33995;48.202;16.260;2023-02-22T04:41:31;10.70;99.90
48206;DHT22;33995;48.202;16.260;2023-02-22T04:44:00;10.70;99.90
48206;DHT22;33995;48.202;16.260;2023-02-22T04:46:28;10.60;99.90
48206;DHT22;33995;48.202;16.260;2023-02-22T04:48:57;10.60;99.90
48206;DHT22;33995;48.202;16.260;2023-02-22T04:51:27;10.50;99.90
48206;DHT22;33995;48.202;16.260;2023-02-22T04:54:04;10.50;99.90
48206;DHT22;33995;48.202;16.260;2023-02-22T04:56:33;10.50;99.90
48206;DHT22;33995;48.202;16.260;2023-02-22T04:59:00;10.50;99.90
48206;DHT22;33995;48.202;16.260;2023-02-22T05:01:32;10.50;99.90
48206;DHT22;33995;48.202;16.260;2023-02-22T05:04:05;10.50;99.90
48206;DHT22;33995;48.202;16.260;2023-02-22T05:06:33;10.50;99.90
48206;DHT22;33995;48.202;16.260;2023-02-22T05:09:01;10.40;99.90
48206;DHT22;33995;48.202;16.260;2023-02-22T05:11:28;10.50;99.90
48206;DHT22;33995;48.202;16.260;2023-02-22T05:13:55;10.40;99.90
48206;DHT22;33995;48.202;16.260;2023-02-22T05:16:22;10.40;99.90
48206;DHT22;33995;48.202;16.260;2023-02-22T05:18:50;10.40;99.90
48206;DHT22;33995;48.202;16.260;2023-02-22T05:21:17;10.40;99.90
48206;DHT22;33995;48.202;16.260;2023-02-22T05:23:44;10.40;99.90
48206;DHT22;33995;48.202;16.260;2023-02-22T05:26:12;10.40;99.90
48206;DHT22;33995;48.202;16.260;2023-02-22T05:28:39;10.40;99.90
48206;DHT22;33995;48.202;16.260;2023-02-22T05:31:08;10.30;99.90
48206;DHT22;33995;48.202;16.260;2023-02-22T05:33:36;10.40;99.90
48206;DHT22;33995;48.202;16.260;2023-02-22T05:36:05;10.40;99.90
48206;DHT22;33995;48.202;16.260;2023-02-22T05:38:33;10.40;99.90
48206;DHT22;33995;48.202;16.260;2023-02-22T05:41:00;10.40;99.90
48206;DHT22;33995;48.202;16.260;2023-02-22T05:43:27;10.40;99.90
48206;DHT22;33995;48.202;16.260;2023-02-22T05:45:54;10.40;99.90
48206;DHT22;33995;48.202;16.260;2023-02-22T05:48:21;10.40;99.90
48206;DHT22;33995;48.202;16.260;2023-02-22T05:50:48;10.40;99.90
48206;DHT22;33995;48.202;16.260;2023-02-22T05:53:16;10.40;99.90
48206;DHT22;33995;48.202;16.260;2023-02-22T05:55:44;10.30;99.90
48206;DHT22;33995;48.202;16.260;2023-02-22T05:58:12;10.30;99.90
48206;DHT22;33995;48.202;16.260;2023-02-22T06:00:41;10.30;99.90
48206;DHT22;33995;48.202;16.260;2023-02-22T06:03:11;10.30;99.90
48206;DHT22;33995;48.202;16.260;2023-02-22T06:05:40;10.40;99.90
48206;DHT22;33995;48.202;16.260;2023-02-22T06:08:08;10.30;99.90
48206;DHT22;33995;48.202;16.260;2023-02-22T06:10:35;10.30;99.90
48206;DHT22;33995;48.202;16.260;2023-02-22T06:13:06;10.30;99.90
48206;DHT22;33995;48.202;16.260;2023-02-22T06:15:33;10.30;99.90
48206;DHT22;33995;48.202;16.260;2023-02-22T06:18:01;10.40;99.90
48206;DHT22;33995;48.202;16.260;2023-02-22T06:20:29;10.30;99.90
48206;DHT22;33995;48.202;16.260;2023-02-22T06:22:57;10.30;99.90
48206;DHT22;33995;48.202;16.260;2023-02-22T06:25:29;10.40;99.90
48206;DHT22;33995;48.202;16.260;2023-02-22T06:28:00;10.30;99.90
48206;DHT22;33995;48.202;16.260;2023-02-22T06:30:27;10.30;99.90
48206;DHT22;33995;48.202;16.260;2023-02-22T06:32:55;10.40;99.90
48206;DHT22;33995;48.202;16.260;2023-02-22T06:35:22;10.40;99.90
48206;DHT22;33995;48.202;16.260;2023-02-22T06:37:51;10.40;99.90
48206;DHT22;33995;48.202;16.260;2023-02-22T06:40:20;10.40;99.90
48206;DHT22;33995;48.202;16.260;2023-02-22T06:42:48;10.40;99.90
48206;DHT22;33995;48.202;16.260;2023-02-22T06:45:16;10.40;99.90
48206;DHT22;33995;48.202;16.260;2023-02-22T06:47:44;10.50;99.90
48206;DHT22;33995;48.202;16.260;2023-02-22T06:50:19;10.50;99.90
48206;DHT22;33995;48.202;16.260;2023-02-22T06:52:47;10.60;99.90
48206;DHT22;33995;48.202;16.260;2023-02-22T06:55:20;10.60;99.90
48206;DHT22;33995;48.202;16.260;2023-02-22T06:57:47;10.60;99.90
48206;DHT22;33995;48.202;16.260;2023-02-22T07:00:16;10.60;99.90
48206;DHT22;33995;48.202;16.260;2023-02-22T07:02:45;10.60;99.90
48206;DHT22;33995;48.202;16.260;2023-02-22T07:05:12;10.70;99.90
48206;DHT22;33995;48.202;16.260;2023-02-22T07:07:39;10.70;99.90
48206;DHT22;33995;48.202;16.260;2023-02-22T07:10:14;10.70;99.90
48206;DHT22;33995;48.202;16.260;2023-02-22T07:12:41;10.80;99.90
48206;DHT22;33995;48.202;16.260;2023-02-22T07:15:08;10.70;99.90
48206;DHT22;33995;48.202;16.260;2023-02-22T07:17:36;10.80;99.90
48206;DHT22;33995;48.202;16.260;2023-02-22T07:20:03;10.80;99.90
48206;DHT22;33995;48.202;16.260;2023-02-22T07:22:30;10.90;99.90
48206;DHT22;33995;48.202;16.260;2023-02-22T07:24:57;10.90;99.90
48206;DHT22;33995;48.202;16.260;2023-02-22T07:27:24;11.00;99.90
48206;DHT22;33995;48.202;16.260;2023-02-22T07:29:51;11.00;99.90
48206;DHT22;33995;48.202;16.260;2023-02-22T07:32:18;11.10;99.90
48206;DHT22;33995;48.202;16.260;2023-02-22T07:34:45;11.20;99.90
48206;DHT22;33995;48.202;16.260;2023-02-22T07:37:12;11.30;99.90
48206;DHT22;33995;48.202;16.260;2023-02-22T07:39:39;11.20;99.90
48206;DHT22;33995;48.202;16.260;2023-02-22T07:42:09;11.20;99.90
48206;DHT22;33995;48.202;16.260;2023-02-22T07:44:36;11.30;99.90
48206;DHT22;33995;48.202;16.260;2023-02-22T07:47:03;11.40;99.90
48206;DHT22;33995;48.202;16.260;2023-02-22T07:49:30;11.40;99.90
48206;DHT22;33995;48.202;16.260;2023-02-22T07:51:59;11.40;99.90
48206;DHT22;33995;48.202;16.260;2023-02-22T07:54:26;11.50;99.90
48206;DHT22;33995;48.202;16.260;2023-02-22T07:56:54;11.60;99.90
48206;DHT22;33995;48.202;16.260;2023-02-22T07:59:21;11.70;99.90
48206;DHT22;33995;48.202;16.260;2023-02-22T08:01:49;11.60;99.90
48206;DHT22;33995;48.202;16.260;2023-02-22T08:04:17;11.70;99.90
48206;DHT22;33995;48.202;16.260;2023-02-22T08:06:45;11.90;99.90
48206;DHT22;33995;48.202;16.260;2023-02-22T08:09:13;11.90;99.90
48206;DHT22;33995;48.202;16.260;2023-02-22T08:11:40;12.00;99.90
48206;DHT22;33995;48.202;16.260;2023-02-22T08:14:07;12.00;99.90
48206;DHT22;33995;48.202;16.260;2023-02-22T08:16:34;12.10;99.90
48206;DHT22;33995;48.202;16.260;2023-02-22T08:19:02;12.10;99.90
48206;DHT22;33995;48.202;16.260;2023-02-22T08:21:29;12.20;99.90
48206;DHT22;33995;48.202;16.260;2023-02-22T08:23:56;12.20;99.90
48206;DHT22;33995;48.202;16.260;2023-02-22T08:26:23;12.30;99.90
48206;DHT22;33995;48.202;16.260;2023-02-22T08:28:51;12.30;99.90
48206;DHT22;33995;48.202;16.260;2023-02-22T08:31:19;12.30;99.90
48206;DHT22;33995;48.202;16.260;2023-02-22T08:33:47;12.50;99.90
48206;DHT22;33995;48.202;16.260;2023-02-22T08:36:15;12.60;99.90
48206;DHT22;33995;48.202;16.260;2023-02-22T08:38:44;12.70;99.90
48206;DHT22;33995;48.202;16.260;2023-02-22T08:41:11;12.70;99.90
48206;DHT22;33995;48.202;16.260;2023-02-22T08:43:39;12.80;99.90
48206;DHT22;33995;48.202;16.260;2023-02-22T08:46:06;12.80;99.90
48206;DHT22;33995;48.202;16.260;2023-02-22T08:48:34;12.90;99.90
48206;DHT22;33995;48.202;16.260;2023-02-22T08:51:01;12.90;99.90
48206;DHT22;33995;48.202;16.260;2023-02-22T08:53:28;12.90;99.90
48206;DHT22;33995;48.202;16.260;2023-02-22T08:55:56;13.00;99.90
48206;DHT22;33995;48.202;16.260;2023-02-22T08:58:23;13.10;99.90
48206;DHT22;33995;48.202;16.260;2023-02-22T09:00:49;13.20;99.90
48206;DHT22;33995;48.202;16.260;2023-02-22T09:03:17;13.30;99.90
48206;DHT22;33995;48.202;16.260;2023-02-22T09:05:44;13.40;99.90
48206;DHT22;33995;48.202;16.260;2023-02-22T09:08:11;13.30;99.90
48206;DHT22;33995;48.202;16.260;2023-02-22T09:10:39;13.20;99.90
48206;DHT22;33995;48.202;16.260;2023-02-22T09:13:07;13.20;99.90
48206;DHT22;33995;48.202;16.260;2023-02-22T09:15:35;13.30;99.90
48206;DHT22;33995;48.202;16.260;2023-02-22T09:18:06;13.30;99.90
48206;DHT22;33995;48.202;16.260;2023-02-22T09:20:37;13.40;99.90
48206;DHT22;33995;48.202;16.260;2023-02-22T09:23:06;13.50;99.90
48206;DHT22;33995;48.202;16.260;2023-02-22T09:25:35;13.60;99.90
48206;DHT22;33995;48.202;16.260;2023-02-22T09:28:04;13.70;99.90
48206;DHT22;33995;48.202;16.260;2023-02-22T09:30:33;13.80;99.90
48206;DHT22;33995;48.202;16.260;2023-02-22T09:35:35;13.90;99.90
48206;DHT22;33995;48.202;16.260;2023-02-22T09:38:03;13.90;99.90
48206;DHT22;33995;48.202;16.260;2023-02-22T09:40:33;13.80;99.90
48206;DHT22;33995;48.202;16.260;2023-02-22T09:48:25;13.90;99.90
48206;DHT22;33995;48.202;16.260;2023-02-22T09:50:57;14.10;99.90
48206;DHT22;33995;48.202;16.260;2023-02-22T09:53:32;14.20;99.90
48206;DHT22;33995;48.202;16.260;2023-02-22T09:56:08;14.40;99.90
48206;DHT22;33995;48.202;16.260;2023-02-22T09:58:51;14.50;99.90
48206;DHT22;33995;48.202;16.260;2023-02-22T10:06:34;14.80;99.90
48206;DHT22;33995;48.202;16.260;2023-02-22T10:09:03;14.90;99.90
48206;DHT22;33995;48.202;16.260;2023-02-22T10:25:00;15.30;99.90
48206;DHT22;33995;48.202;16.260;2023-02-22T10:27:33;15.30;99.90
48206;DHT22;33995;48.202;16.260;2023-02-22T10:33:16;15.20;99.90
48206;DHT22;33995;48.202;16.260;2023-02-22T10:35:45;15.30;99.90
48206;DHT22;33995;48.202;16.260;2023-02-22T10:38:19;15.40;99.90
48206;DHT22;33995;48.202;16.260;2023-02-22T10:43:37;15.40;99.90
48206;DHT22;33995;48.202;16.260;2023-02-22T10:46:06;15.70;99.90
48206;DHT22;33995;48.202;16.260;2023-02-22T10:48:37;15.80;99.90
48206;DHT22;33995;48.202;16.260;2023-02-22T10:51:08;15.90;99.90
48206;DHT22;33995;48.202;16.260;2023-02-22T10:53:37;16.10;99.90
48206;DHT22;33995;48.202;16.260;2023-02-22T10:58:54;15.50;99.90
48206;DHT22;33995;48.202;16.260;2023-02-22T11:04:01;15.80;99.90
48206;DHT22;33995;48.202;16.260;2023-02-22T11:06:33;16.70;99.90
48206;DHT22;33995;48.202;16.260;2023-02-22T11:09:07;17.30;99.90
48206;DHT22;33995;48.202;16.260;2023-02-22T11:11:38;18.00;99.90
48206;DHT22;33995;48.202;16.260;2023-02-22T11:14:06;18.50;99.90
48206;DHT22;33995;48.202;16.260;2023-02-22T11:16:42;18.70;99.90
48206;DHT22;33995;48.202;16.260;2023-02-22T11:19:23;17.80;99.90
48206;DHT22;33995;48.202;16.260;2023-02-22T11:22:07;19.10;99.90
48206;DHT22;33995;48.202;16.260;2023-02-22T11:24:48;20.00;99.90
48206;DHT22;33995;48.202;16.260;2023-02-22T11:27:27;18.80;98.40
48206;DHT22;33995;48.202;16.260;2023-02-22T11:30:16;18.50;99.90
48206;DHT22;33995;48.202;16.260;2023-02-22T11:32:56;18.60;99.80
48206;DHT22;33995;48.202;16.260;2023-02-22T11:37:51;18.00;99.70
48206;DHT22;33995;48.202;16.260;2023-02-22T11:40:21;17.70;99.50
48206;DHT22;33995;48.202;16.260;2023-02-22T11:43:05;17.40;99.90
48206;DHT22;33995;48.202;16.260;2023-02-22T11:45:34;17.50;99.90
48206;DHT22;33995;48.202;16.260;2023-02-22T11:48:03;18.60;99.90
48206;DHT22;33995;48.202;16.260;2023-02-22T11:50:38;19.50;98.10
48206;DHT22;33995;48.202;16.260;2023-02-22T11:56:45;20.20;97.30
48206;DHT22;33995;48.202;16.260;2023-02-22T12:02:28;19.70;96.20
48206;DHT22;33995;48.202;16.260;2023-02-22T12:19:50;19.10;97.00
48206;DHT22;33995;48.202;16.260;2023-02-22T12:22:37;19.90;97.10
48206;DHT22;33995;48.202;16.260;2023-02-22T12:27:45;20.60;95.20
48206;DHT22;33995;48.202;16.260;2023-02-22T12:30:28;20.80;95.10
48206;DHT22;33995;48.202;16.260;2023-02-22T12:33:03;21.50;94.50
48206;DHT22;33995;48.202;16.260;2023-02-22T12:35:35;21.40;93.90
48206;DHT22;33995;48.202;16.260;2023-02-22T12:38:24;21.90;93.60
48206;DHT22;33995;48.202;16.260;2023-02-22T12:41:15;21.90;93.90
48206;DHT22;33995;48.202;16.260;2023-02-22T12:46:26;22.00;92.50
48206;DHT22;33995;48.202;16.260;2023-02-22T12:54:58;22.10;92.10
48206;DHT22;33995;48.202;16.260;2023-02-22T12:57:48;22.40;91.40
48206;DHT22;33995;48.202;16.260;2023-02-22T13:00:29;21.60;92.50
48206;DHT22;33995;48.202;16.260;2023-02-22T13:03:35;21.80;92.10
48206;DHT22;33995;48.202;16.260;2023-02-22T13:25:01;24.20;89.50
48206;DHT22;33995;48.202;16.260;2023-02-22T13:30:59;22.50;88.70
48206;DHT22;33995;48.202;16.260;2023-02-22T13:36:36;22.20;92.00
48206;DHT22;33995;48.202;16.260;2023-02-22T13:45:08;22.70;87.70
48206;DHT22;33995;48.202;16.260;2023-02-22T13:52:53;22.40;90.00
48206;DHT22;33995;48.202;16.260;2023-02-22T13:55:25;23.40;88.50
48206;DHT22;33995;48.202;16.260;2023-02-22T13:58:13;23.30;88.40
48206;DHT22;33995;48.202;16.260;2023-02-22T14:00:58;21.90;89.50
48206;DHT22;33995;48.202;16.260;2023-02-22T14:03:33;20.30;91.30
48206;DHT22;33995;48.202;16.260;2023-02-22T14:06:36;19.60;92.00
48206;DHT22;33995;48.202;16.260;2023-02-22T14:09:12;18.80;93.10
48206;DHT22;33995;48.202;16.260;2023-02-22T14:11:46;17.90;94.20
48206;DHT22;33995;48.202;16.260;2023-02-22T14:14:14;17.90;94.40
48206;DHT22;33995;48.202;16.260;2023-02-22T14:16:44;17.90;94.60
48206;DHT22;33995;48.202;16.260;2023-02-22T14:19:33;18.60;94.10
48206;DHT22;33995;48.202;16.260;2023-02-22T14:22:02;18.50;94.00
48206;DHT22;33995;48.202;16.260;2023-02-22T14:24:42;18.40;94.50
48206;DHT22;33995;48.202;16.260;2023-02-22T14:27:10;18.80;93.80
48206;DHT22;33995;48.202;16.260;2023-02-22T14:29:51;18.60;94.10
48206;DHT22;33995;48.202;16.260;2023-02-22T14:35:12;17.90;95.00
48206;DHT22;33995;48.202;16.260;2023-02-22T14:37:58;17.80;95.20
48206;DHT22;33995;48.202;16.260;2023-02-22T14:40:31;18.00;95.10
48206;DHT22;33995;48.202;16.260;2023-02-22T14:43:10;18.20;94.50
48206;DHT22;33995;48.202;16.260;2023-02-22T14:45:52;18.20;94.40
48206;DHT22;33995;48.202;16.260;2023-02-22T14:48:36;18.50;94.60
48206;DHT22;33995;48.202;16.260;2023-02-22T14:51:12;18.70;94.00
48206;DHT22;33995;48.202;16.260;2023-02-22T14:54:01;18.40;94.40
48206;DHT22;33995;48.202;16.260;2023-02-22T14:56:36;18.70;94.10
48206;DHT22;33995;48.202;16.260;2023-02-22T14:59:22;18.80;93.90
48206;DHT22;33995;48.202;16.260;2023-02-22T15:02:10;18.20;94.30
48206;DHT22;33995;48.202;16.260;2023-02-22T15:04:38;18.10;94.40
48206;DHT22;33995;48.202;16.260;2023-02-22T15:07:25;18.20;94.40
48206;DHT22;33995;48.202;16.260;2023-02-22T15:10:28;18.40;94.50
48206;DHT22;33995;48.202;16.260;2023-02-22T15:13:04;18.80;94.00
48206;DHT22;33995;48.202;16.260;2023-02-22T15:15:42;19.80;93.50
48206;DHT22;33995;48.202;16.260;2023-02-22T15:18:21;21.30;91.60
48206;DHT22;33995;48.202;16.260;2023-02-22T15:20:51;21.30;91.10
48206;DHT22;33995;48.202;16.260;2023-02-22T15:23:47;20.90;91.50
48206;DHT22;33995;48.202;16.260;2023-02-22T15:26:28;21.40;91.20
48206;DHT22;33995;48.202;16.260;2023-02-22T15:28:57;21.40;91.20
48206;DHT22;33995;48.202;16.260;2023-02-22T15:31:34;20.70;91.30
48206;DHT22;33995;48.202;16.260;2023-02-22T15:36:44;17.50;94.60
48206;DHT22;33995;48.202;16.260;2023-02-22T15:39:37;17.00;95.50
48206;DHT22;33995;48.202;16.260;2023-02-22T15:42:10;16.20;96.70
48206;DHT22;33995;48.202;16.260;2023-02-22T15:44:47;16.00;97.00
48206;DHT22;33995;48.202;16.260;2023-02-22T15:47:20;15.60;97.60
48206;DHT22;33995;48.202;16.260;2023-02-22T15:50:24;15.20;98.10
48206;DHT22;33995;48.202;16.260;2023-02-22T15:52:58;14.90;98.70
48206;DHT22;33995;48.202;16.260;2023-02-22T15:55:40;14.70;99.10
48206;DHT22;33995;48.202;16.260;2023-02-22T15:58:21;14.50;99.60
48206;DHT22;33995;48.202;16.260;2023-02-22T16:01:07;14.40;99.90
48206;DHT22;33995;48.202;16.260;2023-02-22T16:03:38;14.30;99.90
48206;DHT22;33995;48.202;16.260;2023-02-22T16:06:36;14.10;99.90
48206;DHT22;33995;48.202;16.260;2023-02-22T16:09:22;13.90;99.90
48206;DHT22;33995;48.202;16.260;2023-02-22T16:12:22;13.80;99.90
48206;DHT22;33995;48.202;16.260;2023-02-22T16:14:50;13.70;99.90
48206;DHT22;33995;48.202;16.260;2023-02-22T16:19:53;13.50;99.90
48206;DHT22;33995;48.202;16.260;2023-02-22T16:22:25;13.30;99.90
48206;DHT22;33995;48.202;16.260;2023-02-22T16:30:37;13.10;99.90
48206;DHT22;33995;48.202;16.260;2023-02-22T16:33:08;13.00;99.90
48206;DHT22;33995;48.202;16.260;2023-02-22T16:35:43;12.80;99.90
48206;DHT22;33995;48.202;16.260;2023-02-22T16:38:18;12.70;99.90
48206;DHT22;33995;48.202;16.260;2023-02-22T16:40:52;12.60;99.90
48206;DHT22;33995;48.202;16.260;2023-02-22T16:43:27;12.50;99.90
48206;DHT22;33995;48.202;16.260;2023-02-22T16:46:01;12.50;99.90
48206;DHT22;33995;48.202;16.260;2023-02-22T16:48:32;12.60;99.90
48206;DHT22;33995;48.202;16.260;2023-02-22T16:51:09;12.50;99.90
48206;DHT22;33995;48.202;16.260;2023-02-22T16:53:42;12.40;99.90
48206;DHT22;33995;48.202;16.260;2023-02-22T16:56:13;12.30;99.90
48206;DHT22;33995;48.202;16.260;2023-02-22T16:58:44;12.30;99.90
48206;DHT22;33995;48.202;16.260;2023-02-22T17:01:12;12.20;99.90
48206;DHT22;33995;48.202;16.260;2023-02-22T17:03:41;12.20;99.90
48206;DHT22;33995;48.202;16.260;2023-02-22T17:06:08;12.10;99.90
48206;DHT22;33995;48.202;16.260;2023-02-22T17:08:42;12.10;99.90
48206;DHT22;33995;48.202;16.260;2023-02-22T17:11:11;12.00;99.90
48206;DHT22;33995;48.202;16.260;2023-02-22T17:13:41;12.00;99.90
48206;DHT22;33995;48.202;16.260;2023-02-22T17:16:15;11.90;99.90
48206;DHT22;33995;48.202;16.260;2023-02-22T17:18:43;11.80;99.90
48206;DHT22;33995;48.202;16.260;2023-02-22T17:21:13;11.70;99.90
48206;DHT22;33995;48.202;16.260;2023-02-22T17:23:43;11.60;99.90
48206;DHT22;33995;48.202;16.260;2023-02-22T17:26:14;11.50;99.90
48206;DHT22;33995;48.202;16.260;2023-02-22T17:28:43;11.40;99.90
48206;DHT22;33995;48.202;16.260;2023-02-22T17:31:23;11.30;99.90
48206;DHT22;33995;48.202;16.260;2023-02-22T17:33:58;11.20;99.90
48206;DHT22;33995;48.202;16.260;2023-02-22T17:36:29;11.10;99.90
48206;DHT22;33995;48.202;16.260;2023-02-22T17:38:58;11.10;99.90
48206;DHT22;33995;48.202;16.260;2023-02-22T17:41:26;11.00;99.90
48206;DHT22;33995;48.202;16.260;2023-02-22T17:43:54;10.90;99.90
48206;DHT22;33995;48.202;16.260;2023-02-22T17:46:24;10.80;99.90
48206;DHT22;33995;48.202;16.260;2023-02-22T17:48:52;10.80;99.90
48206;DHT22;33995;48.202;16.260;2023-02-22T17:51:24;10.60;99.90
48206;DHT22;33995;48.202;16.260;2023-02-22T17:53:52;10.50;99.90
48206;DHT22;33995;48.202;16.260;2023-02-22T17:56:23;10.50;99.90
48206;DHT22;33995;48.202;16.260;2023-02-22T17:58:53;10.30;99.90
48206;DHT22;33995;48.202;16.260;2023-02-22T18:01:26;10.30;99.90
48206;DHT22;33995;48.202;16.260;2023-02-22T18:03:59;10.20;99.90
48206;DHT22;33995;48.202;16.260;2023-02-22T18:06:29;10.20;99.90
48206;DHT22;33995;48.202;16.260;2023-02-22T18:08:59;10.20;99.90
48206;DHT22;33995;48.202;16.260;2023-02-22T18:11:28;10.20;99.90
48206;DHT22;33995;48.202;16.260;2023-02-22T18:14:00;10.30;99.90
48206;DHT22;33995;48.202;16.260;2023-02-22T18:16:28;10.40;99.90
48206;DHT22;33995;48.202;16.260;2023-02-22T18:18:59;10.50;99.90
48206;DHT22;33995;48.202;16.260;2023-02-22T18:21:27;10.50;99.90
48206;DHT22;33995;48.202;16.260;2023-02-22T18:23:57;10.50;99.90
48206;DHT22;33995;48.202;16.260;2023-02-22T18:26:26;10.50;99.90
48206;DHT22;33995;48.202;16.260;2023-02-22T18:28:54;10.40;99.90
48206;DHT22;33995;48.202;16.260;2023-02-22T18:31:24;10.40;99.90
48206;DHT22;33995;48.202;16.260;2023-02-22T18:33:52;10.50;99.90